sensor_id;sensor_type;location;lat;lon;timestamp;P1;P2;P0
40371;PMS5003;28564;53.346;-6.554;2023-02-12T00:00:06;12;9;
40371;PMS5003;28564;53.346;-6.554;2023-02-12T00:02:35;12;11;
40371;PMS5003;28564;53.346;-6.554;2023-02-12T00:05:02;7;7;
40371;PMS5003;28564;53.346;-6.554;2023-02-12T00:07:30;9;8;
40371;PMS5003;28564;53.346;-6.554;2023-02-12T00:09:58;5;5;
40371;PMS5003;28564;53.346;-6.554;2023-02-12T00:12:26;5;4;
40371;PMS5003;28564;53.346;-6.554;2023-02-12T00:14:54;6;6;
40371;PMS5003;28564;53.346;-6.554;2023-02-12T00:17:21;4;4;
40371;PMS5003;28564;53.346;-6.554;2023-02-12T00:19:48;5;5;
40371;PMS5003;28564;53.346;-6.554;2023-02-12T00:22:15;5;5;
40371;PMS5003;28564;53.346;-6.554;2023-02-12T00:24:43;5;5;
40371;PMS5003;28564;53.346;-6.554;2023-02-12T00:27:11;5;5;
40371;PMS5003;28564;53.346;-6.554;2023-02-12T00:29:38;9;5;
40371;PMS5003;28564;53.346;-6.554;2023-02-12T00:32:05;6;4;
40371;PMS5003;28564;53.346;-6.554;2023-02-12T00:34:32;4;4;
40371;PMS5003;28564;53.346;-6.554;2023-02-12T00:37:00;5;5;
40371;PMS5003;28564;53.346;-6.554;2023-02-12T00:39:27;5;5;
40371;PMS5003;28564;53.346;-6.554;2023-02-12T00:41:54;3;3;
40371;PMS5003;28564;53.346;-6.554;2023-02-12T00:44:21;4;4;
40371;PMS5003;28564;53.346;-6.554;2023-02-12T00:46:48;3;3;
40371;PMS5003;28564;53.346;-6.554;2023-02-12T00:49:15;6;5;
40371;PMS5003;28564;53.346;-6.554;2023-02-12T00:51:43;5;4;
40371;PMS5003;28564;53.346;-6.554;2023-02-12T00:54:10;6;6;
40371;PMS5003;28564;53.346;-6.554;2023-02-12T00:56:37;4;4;
40371;PMS5003;28564;53.346;-6.554;2023-02-12T00:59:04;4;4;
40371;PMS5003;28564;53.346;-6.554;2023-02-12T01:01:31;4;4;
40371;PMS5003;28564;53.346;-6.554;2023-02-12T01:03:58;8;5;
40371;PMS5003;28564;53.346;-6.554;2023-02-12T01:06:26;6;5;
40371;PMS5003;28564;53.346;-6.554;2023-02-12T01:08:53;3;3;
40371;PMS5003;28564;53.346;-6.554;2023-02-12T01:11:20;5;5;
40371;PMS5003;28564;53.346;-6.554;2023-02-12T01:13:47;6;4;
40371;PMS5003;28564;53.346;-6.554;2023-02-12T01:16:15;7;6;
40371;PMS5003;28564;53.346;-6.554;2023-02-12T01:18:45;13;9;
40371;PMS5003;28564;53.346;-6.554;2023-02-12T01:21:14;7;7;
40371;PMS5003;28564;53.346;-6.554;2023-02-12T01:23:43;10;9;
40371;PMS5003;28564;53.346;-6.554;2023-02-12T01:26:12;11;7;
40371;PMS5003;28564;53.346;-6.554;2023-02-12T01:28:41;8;8;
40371;PMS5003;28564;53.346;-6.554;2023-02-12T01:31:11;6;6;
40371;PMS5003;28564;53.346;-6.554;2023-02-12T01:33:42;6;6;
40371;PMS5003;28564;53.346;-6.554;2023-02-12T01:36:09;8;8;
40371;PMS5003;28564;53.346;-6.554;2023-02-12T01:38:36;6;6;
40371;PMS5003;28564;53.346;-6.554;2023-02-12T01:41:04;10;8;
40371;PMS5003;28564;53.346;-6.554;2023-02-12T01:43:34;8;8;
40371;PMS5003;28564;53.346;-6.554;2023-02-12T01:46:02;9;8;
40371;PMS5003;28564;53.346;-6.554;2023-02-12T01:48:32;7;7;
40371;PMS5003;28564;53.346;-6.554;2023-02-12T01:51:03;8;8;
40371;PMS5003;28564;53.346;-6.554;2023-02-12T01:53:33;8;7;
40371;PMS5003;28564;53.346;-6.554;2023-02-12T01:56:04;7;7;
40371;PMS5003;28564;53.346;-6.554;2023-02-12T01:58:34;10;9;
40371;PMS5003;28564;53.346;-6.554;2023-02-12T02:01:05;7;7;
40371;PMS5003;28564;53.346;-6.554;2023-02-12T02:03:35;7;7;
40371;PMS5003;28564;53.346;-6.554;2023-02-12T02:06:06;10;10;
40371;PMS5003;28564;53.346;-6.554;2023-02-12T02:08:37;7;7;
40371;PMS5003;28564;53.346;-6.554;2023-02-12T02:11:05;6;6;
40371;PMS5003;28564;53.346;-6.554;2023-02-12T02:13:32;7;6;
40371;PMS5003;28564;53.346;-6.554;2023-02-12T02:16:00;10;7;
40371;PMS5003;28564;53.346;-6.554;2023-02-12T02:18:34;9;9;
40371;PMS5003;28564;53.346;-6.554;2023-02-12T02:21:13;10;10;
40371;PMS5003;28564;53.346;-6.554;2023-02-12T02:24:01;13;11;
40371;PMS5003;28564;53.346;-6.554;2023-02-12T02:27:03;10;9;
40371;PMS5003;28564;53.346;-6.554;2023-02-12T02:29:42;13;13;
40371;PMS5003;28564;53.346;-6.554;2023-02-12T02:32:23;11;11;
40371;PMS5003;28564;53.346;-6.554;2023-02-12T02:34:54;11;10;
40371;PMS5003;28564;53.346;-6.554;2023-02-12T02:37:30;10;9;
40371;PMS5003;28564;53.346;-6.554;2023-02-12T02:40:04;9;9;
40371;PMS5003;28564;53.346;-6.554;2023-02-12T02:42:39;9;9;
40371;PMS5003;28564;53.346;-6.554;2023-02-12T02:45:10;7;7;
40371;PMS5003;28564;53.346;-6.554;2023-02-12T02:47:42;12;9;
40371;PMS5003;28564;53.346;-6.554;2023-02-12T02:50:13;9;9;
40371;PMS5003;28564;53.346;-6.554;2023-02-12T02:52:44;6;6;
40371;PMS5003;28564;53.346;-6.554;2023-02-12T02:55:17;11;8;
40371;PMS5003;28564;53.346;-6.554;2023-02-12T02:57:49;7;7;
40371;PMS5003;28564;53.346;-6.554;2023-02-12T03:00:20;10;10;
40371;PMS5003;28564;53.346;-6.554;2023-02-12T03:02:53;13;12;
40371;PMS5003;28564;53.346;-6.554;2023-02-12T03:05:23;15;12;
40371;PMS5003;28564;53.346;-6.554;2023-02-12T03:07:56;15;13;
40371;PMS5003;28564;53.346;-6.554;2023-02-12T03:10:28;17;15;
40371;PMS5003;28564;53.346;-6.554;2023-02-12T03:13:00;17;17;
40371;PMS5003;28564;53.346;-6.554;2023-02-12T03:15:34;21;17;
40371;PMS5003;28564;53.346;-6.554;2023-02-12T03:18:06;17;13;
40371;PMS5003;28564;53.346;-6.554;2023-02-12T03:20:38;18;14;
40371;PMS5003;28564;53.346;-6.554;2023-02-12T03:23:13;16;15;
40371;PMS5003;28564;53.346;-6.554;2023-02-12T03:25:47;16;15;
40371;PMS5003;28564;53.346;-6.554;2023-02-12T03:28:19;17;14;
40371;PMS5003;28564;53.346;-6.554;2023-02-12T03:30:52;17;17;
40371;PMS5003;28564;53.346;-6.554;2023-02-12T03:33:29;17;17;
40371;PMS5003;28564;53.346;-6.554;2023-02-12T03:36:05;21;19;
40371;PMS5003;28564;53.346;-6.554;2023-02-12T03:38:41;21;16;
40371;PMS5003;28564;53.346;-6.554;2023-02-12T03:41:13;21;19;
40371;PMS5003;28564;53.346;-6.554;2023-02-12T03:43:47;20;19;
40371;PMS5003;28564;53.346;-6.554;2023-02-12T03:46:19;19;16;
40371;PMS5003;28564;53.346;-6.554;2023-02-12T03:48:54;20;17;
40371;PMS5003;28564;53.346;-6.554;2023-02-12T03:51:27;16;15;
40371;PMS5003;28564;53.346;-6.554;2023-02-12T03:54:00;20;18;
40371;PMS5003;28564;53.346;-6.554;2023-02-12T03:56:31;20;17;
40371;PMS5003;28564;53.346;-6.554;2023-02-12T03:59:03;21;18;
40371;PMS5003;28564;53.346;-6.554;2023-02-12T04:01:36;16;16;
40371;PMS5003;28564;53.346;-6.554;2023-02-12T04:04:05;18;16;
40371;PMS5003;28564;53.346;-6.554;2023-02-12T04:06:34;19;18;
40371;PMS5003;28564;53.346;-6.554;2023-02-12T04:09:01;24;22;
40371;PMS5003;28564;53.346;-6.554;2023-02-12T04:11:35;23;23;
40371;PMS5003;28564;53.346;-6.554;2023-02-12T04:14:14;21;18;
40371;PMS5003;28564;53.346;-6.554;2023-02-12T04:16:50;22;19;
40371;PMS5003;28564;53.346;-6.554;2023-02-12T04:19:26;15;14;
40371;PMS5003;28564;53.346;-6.554;2023-02-12T04:22:10;19;16;
40371;PMS5003;28564;53.346;-6.554;2023-02-12T04:24:45;20;19;
40371;PMS5003;28564;53.346;-6.554;2023-02-12T04:27:21;21;19;
40371;PMS5003;28564;53.346;-6.554;2023-02-12T04:29:52;20;17;
40371;PMS5003;28564;53.346;-6.554;2023-02-12T04:32:30;19;16;
40371;PMS5003;28564;53.346;-6.554;2023-02-12T04:35:04;13;13;
40371;PMS5003;28564;53.346;-6.554;2023-02-12T04:37:40;13;13;
40371;PMS5003;28564;53.346;-6.554;2023-02-12T04:40:11;14;13;
40371;PMS5003;28564;53.346;-6.554;2023-02-12T04:42:41;17;17;
40371;PMS5003;28564;53.346;-6.554;2023-02-12T04:45:13;19;17;
40371;PMS5003;28564;53.346;-6.554;2023-02-12T04:47:43;19;16;
40371;PMS5003;28564;53.346;-6.554;2023-02-12T04:50:10;13;13;
40371;PMS5003;28564;53.346;-6.554;2023-02-12T04:52:38;12;12;
40371;PMS5003;28564;53.346;-6.554;2023-02-12T04:55:06;11;11;
40371;PMS5003;28564;53.346;-6.554;2023-02-12T04:57:33;9;8;
40371;PMS5003;28564;53.346;-6.554;2023-02-12T05:00:00;13;12;
40371;PMS5003;28564;53.346;-6.554;2023-02-12T05:02:28;10;9;
40371;PMS5003;28564;53.346;-6.554;2023-02-12T05:04:56;11;9;
40371;PMS5003;28564;53.346;-6.554;2023-02-12T05:07:23;10;7;
40371;PMS5003;28564;53.346;-6.554;2023-02-12T05:09:50;15;12;
40371;PMS5003;28564;53.346;-6.554;2023-02-12T05:12:17;15;14;
40371;PMS5003;28564;53.346;-6.554;2023-02-12T05:14:44;15;14;
40371;PMS5003;28564;53.346;-6.554;2023-02-12T05:17:12;10;10;
40371;PMS5003;28564;53.346;-6.554;2023-02-12T05:19:40;9;9;
40371;PMS5003;28564;53.346;-6.554;2023-02-12T05:22:07;10;9;
40371;PMS5003;28564;53.346;-6.554;2023-02-12T05:24:35;8;6;
40371;PMS5003;28564;53.346;-6.554;2023-02-12T05:27:03;10;7;
40371;PMS5003;28564;53.346;-6.554;2023-02-12T05:29:31;6;6;
40371;PMS5003;28564;53.346;-6.554;2023-02-12T05:31:58;5;5;
40371;PMS5003;28564;53.346;-6.554;2023-02-12T05:34:25;5;5;
40371;PMS5003;28564;53.346;-6.554;2023-02-12T05:36:52;5;5;
40371;PMS5003;28564;53.346;-6.554;2023-02-12T05:39:20;5;5;
40371;PMS5003;28564;53.346;-6.554;2023-02-12T05:41:47;10;7;
40371;PMS5003;28564;53.346;-6.554;2023-02-12T05:44:14;5;4;
40371;PMS5003;28564;53.346;-6.554;2023-02-12T05:46:41;6;5;
40371;PMS5003;28564;53.346;-6.554;2023-02-12T05:49:09;6;5;
40371;PMS5003;28564;53.346;-6.554;2023-02-12T05:51:36;8;5;
40371;PMS5003;28564;53.346;-6.554;2023-02-12T05:54:05;6;4;
40371;PMS5003;28564;53.346;-6.554;2023-02-12T05:56:33;4;4;
40371;PMS5003;28564;53.346;-6.554;2023-02-12T05:59:02;4;4;
40371;PMS5003;28564;53.346;-6.554;2023-02-12T06:01:33;4;4;
40371;PMS5003;28564;53.346;-6.554;2023-02-12T06:04:03;2;2;
40371;PMS5003;28564;53.346;-6.554;2023-02-12T06:06:33;2;1;
40371;PMS5003;28564;53.346;-6.554;2023-02-12T06:09:01;2;2;
40371;PMS5003;28564;53.346;-6.554;2023-02-12T06:11:28;1;1;
40371;PMS5003;28564;53.346;-6.554;2023-02-12T06:13:55;3;1;
40371;PMS5003;28564;53.346;-6.554;2023-02-12T06:16:24;1;1;
40371;PMS5003;28564;53.346;-6.554;2023-02-12T06:18:53;0;0;
40371;PMS5003;28564;53.346;-6.554;2023-02-12T06:21:22;0;0;
40371;PMS5003;28564;53.346;-6.554;2023-02-12T06:23:50;1;1;
40371;PMS5003;28564;53.346;-6.554;2023-02-12T06:26:18;0;0;
40371;PMS5003;28564;53.346;-6.554;2023-02-12T06:28:46;1;1;
40371;PMS5003;28564;53.346;-6.554;2023-02-12T06:31:16;0;0;
40371;PMS5003;28564;53.346;-6.554;2023-02-12T06:33:45;0;0;
40371;PMS5003;28564;53.346;-6.554;2023-02-12T06:36:12;1;1;
40371;PMS5003;28564;53.346;-6.554;2023-02-12T06:38:39;0;0;
40371;PMS5003;28564;53.346;-6.554;2023-02-12T06:41:07;0;0;
40371;PMS5003;28564;53.346;-6.554;2023-02-12T06:43:34;1;1;
40371;PMS5003;28564;53.346;-6.554;2023-02-12T06:46:02;3;3;
40371;PMS5003;28564;53.346;-6.554;2023-02-12T06:48:30;5;3;
40371;PMS5003;28564;53.346;-6.554;2023-02-12T06:51:02;5;3;
40371;PMS5003;28564;53.346;-6.554;2023-02-12T06:53:32;5;5;
40371;PMS5003;28564;53.346;-6.554;2023-02-12T06:55:59;8;6;
40371;PMS5003;28564;53.346;-6.554;2023-02-12T06:58:26;6;5;
40371;PMS5003;28564;53.346;-6.554;2023-02-12T07:00:54;5;3;
40371;PMS5003;28564;53.346;-6.554;2023-02-12T07:03:21;6;6;
40371;PMS5003;28564;53.346;-6.554;2023-02-12T07:05:48;5;4;
40371;PMS5003;28564;53.346;-6.554;2023-02-12T07:08:15;6;3;
40371;PMS5003;28564;53.346;-6.554;2023-02-12T07:10:46;6;6;
40371;PMS5003;28564;53.346;-6.554;2023-02-12T07:13:14;4;4;
40371;PMS5003;28564;53.346;-6.554;2023-02-12T07:15:41;3;3;
40371;PMS5003;28564;53.346;-6.554;2023-02-12T07:18:08;5;3;
40371;PMS5003;28564;53.346;-6.554;2023-02-12T07:20:36;3;3;
40371;PMS5003;28564;53.346;-6.554;2023-02-12T07:23:04;3;3;
40371;PMS5003;28564;53.346;-6.554;2023-02-12T07:25:31;2;2;
40371;PMS5003;28564;53.346;-6.554;2023-02-12T07:27:58;2;1;
40371;PMS5003;28564;53.346;-6.554;2023-02-12T07:30:25;1;1;
40371;PMS5003;28564;53.346;-6.554;2023-02-12T07:32:53;2;1;
40371;PMS5003;28564;53.346;-6.554;2023-02-12T07:35:20;3;3;
40371;PMS5003;28564;53.346;-6.554;2023-02-12T07:37:47;2;2;
40371;PMS5003;28564;53.346;-6.554;2023-02-12T07:40:14;4;3;
40371;PMS5003;28564;53.346;-6.554;2023-02-12T07:42:41;2;2;
40371;PMS5003;28564;53.346;-6.554;2023-02-12T07:45:10;1;1;
40371;PMS5003;28564;53.346;-6.554;2023-02-12T07:47:37;2;2;
40371;PMS5003;28564;53.346;-6.554;2023-02-12T07:50:05;3;2;
40371;PMS5003;28564;53.346;-6.554;2023-02-12T07:52:33;4;4;
40371;PMS5003;28564;53.346;-6.554;2023-02-12T07:55:00;3;2;
40371;PMS5003;28564;53.346;-6.554;2023-02-12T07:57:27;5;3;
40371;PMS5003;28564;53.346;-6.554;2023-02-12T07:59:55;3;3;
40371;PMS5003;28564;53.346;-6.554;2023-02-12T08:02:22;5;3;
40371;PMS5003;28564;53.346;-6.554;2023-02-12T08:04:53;4;4;
40371;PMS5003;28564;53.346;-6.554;2023-02-12T08:07:21;4;4;
40371;PMS5003;28564;53.346;-6.554;2023-02-12T08:09:49;5;4;
40371;PMS5003;28564;53.346;-6.554;2023-02-12T08:12:16;5;4;
40371;PMS5003;28564;53.346;-6.554;2023-02-12T08:14:44;4;4;
40371;PMS5003;28564;53.346;-6.554;2023-02-12T08:17:11;3;3;
40371;PMS5003;28564;53.346;-6.554;2023-02-12T08:19:38;2;2;
40371;PMS5003;28564;53.346;-6.554;2023-02-12T08:22:06;3;3;
40371;PMS5003;28564;53.346;-6.554;2023-02-12T08:24:33;2;1;
40371;PMS5003;28564;53.346;-6.554;2023-02-12T08:27:00;3;2;
40371;PMS5003;28564;53.346;-6.554;2023-02-12T08:29:28;2;2;
40371;PMS5003;28564;53.346;-6.554;2023-02-12T08:31:56;4;3;
40371;PMS5003;28564;53.346;-6.554;2023-02-12T08:34:26;3;3;
40371;PMS5003;28564;53.346;-6.554;2023-02-12T08:36:54;4;2;
40371;PMS5003;28564;53.346;-6.554;2023-02-12T08:39:23;3;3;
40371;PMS5003;28564;53.346;-6.554;2023-02-12T08:41:53;5;2;
40371;PMS5003;28564;53.346;-6.554;2023-02-12T08:44:20;3;3;
40371;PMS5003;28564;53.346;-6.554;2023-02-12T08:46:48;4;3;
40371;PMS5003;28564;53.346;-6.554;2023-02-12T08:49:18;1;1;
40371;PMS5003;28564;53.346;-6.554;2023-02-12T08:51:48;1;1;
40371;PMS5003;28564;53.346;-6.554;2023-02-12T08:54:18;1;1;
40371;PMS5003;28564;53.346;-6.554;2023-02-12T08:56:47;1;1;
40371;PMS5003;28564;53.346;-6.554;2023-02-12T08:59:14;1;0;
40371;PMS5003;28564;53.346;-6.554;2023-02-12T09:01:42;1;1;
40371;PMS5003;28564;53.346;-6.554;2023-02-12T09:04:12;0;0;
40371;PMS5003;28564;53.346;-6.554;2023-02-12T09:06:40;1;1;
40371;PMS5003;28564;53.346;-6.554;2023-02-12T09:09:08;1;1;
40371;PMS5003;28564;53.346;-6.554;2023-02-12T09:11:35;0;0;
40371;PMS5003;28564;53.346;-6.554;2023-02-12T09:14:04;1;1;
40371;PMS5003;28564;53.346;-6.554;2023-02-12T09:16:34;3;1;
40371;PMS5003;28564;53.346;-6.554;2023-02-12T09:19:02;1;1;
40371;PMS5003;28564;53.346;-6.554;2023-02-12T09:21:30;1;1;
40371;PMS5003;28564;53.346;-6.554;2023-02-12T09:23:59;3;1;
40371;PMS5003;28564;53.346;-6.554;2023-02-12T09:26:27;2;2;
40371;PMS5003;28564;53.346;-6.554;2023-02-12T09:28:54;1;1;
40371;PMS5003;28564;53.346;-6.554;2023-02-12T09:31:23;1;1;
40371;PMS5003;28564;53.346;-6.554;2023-02-12T09:33:51;2;2;
40371;PMS5003;28564;53.346;-6.554;2023-02-12T09:36:20;1;1;
40371;PMS5003;28564;53.346;-6.554;2023-02-12T09:38:47;3;2;
40371;PMS5003;28564;53.346;-6.554;2023-02-12T09:41:23;2;2;
40371;PMS5003;28564;53.346;-6.554;2023-02-12T09:44:05;1;1;
40371;PMS5003;28564;53.346;-6.554;2023-02-12T09:46:39;2;2;
40371;PMS5003;28564;53.346;-6.554;2023-02-12T09:49:14;3;1;
40371;PMS5003;28564;53.346;-6.554;2023-02-12T09:51:50;2;2;
40371;PMS5003;28564;53.346;-6.554;2023-02-12T09:54:20;1;1;
40371;PMS5003;28564;53.346;-6.554;2023-02-12T09:56:51;2;2;
40371;PMS5003;28564;53.346;-6.554;2023-02-12T09:59:25;1;0;
40371;PMS5003;28564;53.346;-6.554;2023-02-12T10:01:58;1;1;
40371;PMS5003;28564;53.346;-6.554;2023-02-12T10:04:26;2;1;
40371;PMS5003;28564;53.346;-6.554;2023-02-12T10:06:56;0;0;
40371;PMS5003;28564;53.346;-6.554;2023-02-12T10:09:33;2;0;
40371;PMS5003;28564;53.346;-6.554;2023-02-12T10:12:14;0;0;
40371;PMS5003;28564;53.346;-6.554;2023-02-12T10:15:02;1;1;
40371;PMS5003;28564;53.346;-6.554;2023-02-12T10:17:41;3;1;
40371;PMS5003;28564;53.346;-6.554;2023-02-12T10:20:20;1;1;
40371;PMS5003;28564;53.346;-6.554;2023-02-12T10:23:01;0;0;
40371;PMS5003;28564;53.346;-6.554;2023-02-12T10:25:42;2;2;
40371;PMS5003;28564;53.346;-6.554;2023-02-12T10:28:14;1;1;
40371;PMS5003;28564;53.346;-6.554;2023-02-12T10:30:46;1;1;
40371;PMS5003;28564;53.346;-6.554;2023-02-12T10:33:18;1;1;
40371;PMS5003;28564;53.346;-6.554;2023-02-12T10:35:52;2;2;
40371;PMS5003;28564;53.346;-6.554;2023-02-12T10:38:26;2;0;
40371;PMS5003;28564;53.346;-6.554;2023-02-12T10:40:59;1;1;
40371;PMS5003;28564;53.346;-6.554;2023-02-12T10:43:26;0;0;
40371;PMS5003;28564;53.346;-6.554;2023-02-12T10:45:54;3;1;
40371;PMS5003;28564;53.346;-6.554;2023-02-12T10:48:23;1;1;
40371;PMS5003;28564;53.346;-6.554;2023-02-12T10:50:59;3;2;
40371;PMS5003;28564;53.346;-6.554;2023-02-12T10:53:37;1;1;
40371;PMS5003;28564;53.346;-6.554;2023-02-12T10:56:09;1;1;
40371;PMS5003;28564;53.346;-6.554;2023-02-12T10:58:41;2;2;
40371;PMS5003;28564;53.346;-6.554;2023-02-12T11:01:18;1;1;
40371;PMS5003;28564;53.346;-6.554;2023-02-12T11:03:49;1;1;
40371;PMS5003;28564;53.346;-6.554;2023-02-12T11:06:17;1;1;
40371;PMS5003;28564;53.346;-6.554;2023-02-12T11:08:46;2;1;
40371;PMS5003;28564;53.346;-6.554;2023-02-12T11:11:15;2;1;
40371;PMS5003;28564;53.346;-6.554;2023-02-12T11:13:47;4;2;
40371;PMS5003;28564;53.346;-6.554;2023-02-12T11:16:28;2;1;
40371;PMS5003;28564;53.346;-6.554;2023-02-12T11:18:58;1;1;
40371;PMS5003;28564;53.346;-6.554;2023-02-12T11:21:27;3;1;
40371;PMS5003;28564;53.346;-6.554;2023-02-12T11:23:54;2;2;
40371;PMS5003;28564;53.346;-6.554;2023-02-12T11:26:23;2;2;
40371;PMS5003;28564;53.346;-6.554;2023-02-12T11:28:53;3;2;
40371;PMS5003;28564;53.346;-6.554;2023-02-12T11:31:23;1;1;
40371;PMS5003;28564;53.346;-6.554;2023-02-12T11:34:24;2;2;
40371;PMS5003;28564;53.346;-6.554;2023-02-12T11:36:51;2;2;
40371;PMS5003;28564;53.346;-6.554;2023-02-12T11:39:20;2;2;
40371;PMS5003;28564;53.346;-6.554;2023-02-12T11:41:52;2;2;
40371;PMS5003;28564;53.346;-6.554;2023-02-12T11:44:22;2;2;
40371;PMS5003;28564;53.346;-6.554;2023-02-12T11:46:52;3;2;
40371;PMS5003;28564;53.346;-6.554;2023-02-12T11:49:23;1;1;
40371;PMS5003;28564;53.346;-6.554;2023-02-12T11:51:54;4;3;
40371;PMS5003;28564;53.346;-6.554;2023-02-12T11:54:25;3;3;
40371;PMS5003;28564;53.346;-6.554;2023-02-12T11:56:54;0;0;
40371;PMS5003;28564;53.346;-6.554;2023-02-12T11:59:26;3;3;
40371;PMS5003;28564;53.346;-6.554;2023-02-12T12:02:00;4;2;
40371;PMS5003;28564;53.346;-6.554;2023-02-12T12:04:32;6;6;
40371;PMS5003;28564;53.346;-6.554;2023-02-12T12:07:01;19;19;
40371;PMS5003;28564;53.346;-6.554;2023-02-12T12:09:38;12;8;
40371;PMS5003;28564;53.346;-6.554;2023-02-12T12:12:11;1;1;
40371;PMS5003;28564;53.346;-6.554;2023-02-12T12:14:44;1;1;
40371;PMS5003;28564;53.346;-6.554;2023-02-12T12:17:14;1;1;
40371;PMS5003;28564;53.346;-6.554;2023-02-12T12:19:46;1;1;
40371;PMS5003;28564;53.346;-6.554;2023-02-12T12:22:25;3;2;
40371;PMS5003;28564;53.346;-6.554;2023-02-12T12:25:05;11;10;
40371;PMS5003;28564;53.346;-6.554;2023-02-12T12:27:41;4;3;
40371;PMS5003;28564;53.346;-6.554;2023-02-12T12:30:21;3;3;
40371;PMS5003;28564;53.346;-6.554;2023-02-12T12:32:59;1;1;
40371;PMS5003;28564;53.346;-6.554;2023-02-12T12:35:36;4;3;
40371;PMS5003;28564;53.346;-6.554;2023-02-12T12:38:14;2;1;
40371;PMS5003;28564;53.346;-6.554;2023-02-12T12:41:00;4;2;
40371;PMS5003;28564;53.346;-6.554;2023-02-12T12:43:38;2;2;
40371;PMS5003;28564;53.346;-6.554;2023-02-12T12:46:40;1;1;
40371;PMS5003;28564;53.346;-6.554;2023-02-12T12:49:28;3;3;
40371;PMS5003;28564;53.346;-6.554;2023-02-12T12:52:12;2;2;
40371;PMS5003;28564;53.346;-6.554;2023-02-12T12:54:59;2;1;
40371;PMS5003;28564;53.346;-6.554;2023-02-12T12:57:17;2;1;
40371;PMS5003;28564;53.346;-6.554;2023-02-12T13:00:02;2;1;
40371;PMS5003;28564;53.346;-6.554;2023-02-12T13:02:48;2;1;
40371;PMS5003;28564;53.346;-6.554;2023-02-12T13:05:50;2;2;
40371;PMS5003;28564;53.346;-6.554;2023-02-12T13:08:40;1;1;
40371;PMS5003;28564;53.346;-6.554;2023-02-12T13:11:26;10;10;
40371;PMS5003;28564;53.346;-6.554;2023-02-12T13:14:07;10;10;
40371;PMS5003;28564;53.346;-6.554;2023-02-12T13:16:50;2;2;
40371;PMS5003;28564;53.346;-6.554;2023-02-12T13:19:31;3;2;
40371;PMS5003;28564;53.346;-6.554;2023-02-12T13:22:09;3;3;
40371;PMS5003;28564;53.346;-6.554;2023-02-12T13:24:44;3;3;
40371;PMS5003;28564;53.346;-6.554;2023-02-12T13:27:20;5;3;
40371;PMS5003;28564;53.346;-6.554;2023-02-12T13:29:52;4;3;
40371;PMS5003;28564;53.346;-6.554;2023-02-12T13:32:26;3;3;
40371;PMS5003;28564;53.346;-6.554;2023-02-12T13:34:56;4;2;
40371;PMS5003;28564;53.346;-6.554;2023-02-12T13:37:29;3;3;
40371;PMS5003;28564;53.346;-6.554;2023-02-12T13:40:04;4;3;
40371;PMS5003;28564;53.346;-6.554;2023-02-12T13:42:42;4;4;
40371;PMS5003;28564;53.346;-6.554;2023-02-12T13:45:20;2;2;
40371;PMS5003;28564;53.346;-6.554;2023-02-12T13:48:02;3;3;
40371;PMS5003;28564;53.346;-6.554;2023-02-12T13:50:41;4;4;
40371;PMS5003;28564;53.346;-6.554;2023-02-12T13:53:17;2;2;
40371;PMS5003;28564;53.346;-6.554;2023-02-12T13:55:54;6;3;
40371;PMS5003;28564;53.346;-6.554;2023-02-12T13:58:38;4;4;
40371;PMS5003;28564;53.346;-6.554;2023-02-12T14:01:33;5;5;
40371;PMS5003;28564;53.346;-6.554;2023-02-12T14:04:14;5;4;
40371;PMS5003;28564;53.346;-6.554;2023-02-12T14:06:53;6;6;
40371;PMS5003;28564;53.346;-6.554;2023-02-12T14:09:26;7;6;
40371;PMS5003;28564;53.346;-6.554;2023-02-12T14:11:57;5;5;
40371;PMS5003;28564;53.346;-6.554;2023-02-12T14:14:26;8;5;
40371;PMS5003;28564;53.346;-6.554;2023-02-12T14:16:57;7;7;
40371;PMS5003;28564;53.346;-6.554;2023-02-12T14:20:11;11;8;
40371;PMS5003;28564;53.346;-6.554;2023-02-12T14:23:21;7;7;
40371;PMS5003;28564;53.346;-6.554;2023-02-12T14:25:56;14;14;
40371;PMS5003;28564;53.346;-6.554;2023-02-12T14:28:27;5;5;
40371;PMS5003;28564;53.346;-6.554;2023-02-12T14:31:39;4;4;
40371;PMS5003;28564;53.346;-6.554;2023-02-12T14:34:39;5;5;
40371;PMS5003;28564;53.346;-6.554;2023-02-12T14:37:10;5;5;
40371;PMS5003;28564;53.346;-6.554;2023-02-12T14:39:43;8;5;
40371;PMS5003;28564;53.346;-6.554;2023-02-12T14:42:42;5;5;
40371;PMS5003;28564;53.346;-6.554;2023-02-12T14:45:29;7;6;
40371;PMS5003;28564;53.346;-6.554;2023-02-12T14:47:59;4;4;
40371;PMS5003;28564;53.346;-6.554;2023-02-12T14:50:30;7;5;
40371;PMS5003;28564;53.346;-6.554;2023-02-12T14:53:07;5;5;
40371;PMS5003;28564;53.346;-6.554;2023-02-12T14:55:46;7;6;
40371;PMS5003;28564;53.346;-6.554;2023-02-12T14:58:16;3;3;
40371;PMS5003;28564;53.346;-6.554;2023-02-12T15:00:45;7;5;
40371;PMS5003;28564;53.346;-6.554;2023-02-12T15:03:17;5;5;
40371;PMS5003;28564;53.346;-6.554;2023-02-12T15:05:49;10;6;
40371;PMS5003;28564;53.346;-6.554;2023-02-12T15:08:25;4;4;
40371;PMS5003;28564;53.346;-6.554;2023-02-12T15:11:00;4;4;
40371;PMS5003;28564;53.346;-6.554;2023-02-12T15:13:38;5;4;
40371;PMS5003;28564;53.346;-6.554;2023-02-12T15:16:14;7;5;
40371;PMS5003;28564;53.346;-6.554;2023-02-12T15:18:50;9;9;
40371;PMS5003;28564;53.346;-6.554;2023-02-12T15:21:23;8;7;
40371;PMS5003;28564;53.346;-6.554;2023-02-12T15:24:01;9;6;
40371;PMS5003;28564;53.346;-6.554;2023-02-12T15:26:32;6;6;
40371;PMS5003;28564;53.346;-6.554;2023-02-12T15:29:02;4;3;
40371;PMS5003;28564;53.346;-6.554;2023-02-12T15:31:30;4;4;
40371;PMS5003;28564;53.346;-6.554;2023-02-12T15:34:00;3;3;
40371;PMS5003;28564;53.346;-6.554;2023-02-12T15:36:30;4;4;
40371;PMS5003;28564;53.346;-6.554;2023-02-12T15:38:59;7;5;
40371;PMS5003;28564;53.346;-6.554;2023-02-12T15:41:34;7;5;
40371;PMS5003;28564;53.346;-6.554;2023-02-12T15:44:15;5;3;
40371;PMS5003;28564;53.346;-6.554;2023-02-12T15:47:02;5;5;
40371;PMS5003;28564;53.346;-6.554;2023-02-12T15:49:39;5;5;
40371;PMS5003;28564;53.346;-6.554;2023-02-12T15:52:09;9;7;
40371;PMS5003;28564;53.346;-6.554;2023-02-12T15:54:43;5;5;
40371;PMS5003;28564;53.346;-6.554;2023-02-12T15:57:18;7;7;
40371;PMS5003;28564;53.346;-6.554;2023-02-12T15:59:48;6;5;
40371;PMS5003;28564;53.346;-6.554;2023-02-12T16:02:18;7;7;
40371;PMS5003;28564;53.346;-6.554;2023-02-12T16:04:46;10;5;
40371;PMS5003;28564;53.346;-6.554;2023-02-12T16:07:14;8;8;
40371;PMS5003;28564;53.346;-6.554;2023-02-12T16:09:42;5;5;
40371;PMS5003;28564;53.346;-6.554;2023-02-12T16:12:11;10;7;
40371;PMS5003;28564;53.346;-6.554;2023-02-12T16:14:40;12;10;
40371;PMS5003;28564;53.346;-6.554;2023-02-12T16:17:17;8;8;
40371;PMS5003;28564;53.346;-6.554;2023-02-12T16:19:56;6;5;
40371;PMS5003;28564;53.346;-6.554;2023-02-12T16:22:25;10;6;
40371;PMS5003;28564;53.346;-6.554;2023-02-12T16:24:56;11;11;
40371;PMS5003;28564;53.346;-6.554;2023-02-12T16:27:25;13;13;
40371;PMS5003;28564;53.346;-6.554;2023-02-12T16:29:55;5;3;
40371;PMS5003;28564;53.346;-6.554;2023-02-12T16:32:26;8;7;
40371;PMS5003;28564;53.346;-6.554;2023-02-12T16:34:59;9;9;
40371;PMS5003;28564;53.346;-6.554;2023-02-12T16:37:40;11;9;
40371;PMS5003;28564;53.346;-6.554;2023-02-12T16:40:19;5;5;
40371;PMS5003;28564;53.346;-6.554;2023-02-12T16:42:57;6;6;
40371;PMS5003;28564;53.346;-6.554;2023-02-12T16:45:38;10;7;
40371;PMS5003;28564;53.346;-6.554;2023-02-12T16:48:14;7;6;
40371;PMS5003;28564;53.346;-6.554;2023-02-12T16:50:45;6;4;
40371;PMS5003;28564;53.346;-6.554;2023-02-12T16:53:47;3;3;
40371;PMS5003;28564;53.346;-6.554;2023-02-12T16:56:15;4;4;
40371;PMS5003;28564;53.346;-6.554;2023-02-12T16:58:44;8;6;
40371;PMS5003;28564;53.346;-6.554;2023-02-12T17:01:18;6;6;